Aeroporto :
LOGIN :

Iscrizione | Disclaimer

   EN    FR    IT 

 










Sommario :    VFR   VFR Marginale   IFR   IFR Intensivo   IFR Molto Intensivo
Visibilità : 
Base nubi : 
>= 8 km
>= 3000ft
5 / 8 km
1000 / 3000 ft
1500m / 5 km
500 / 1000 ft
800 / 1500m
200 / 500 ft
< 800m
< 200 ft
Simboli :   Temporali  Nebbia  Neve Forte  Precipitazioni Forti  Vento > 20 kt
SIGMETs :   Varie  Temporali  Ghiacco  Turbolenza  Onda orograficha  Ceneri Vulcaniche






- Altitudine del aeroporto : 124 ft
- Codice IATA : NHT


EGWU - RAF Northolt

ULTIMO METAR :
  • 211550Z 25016KT 9999 SCT028 BKN030 10/05 Q1021 BECMG SCT024 BKN028 RMK BLU BECMG WHT

METARs OBSOLETI :
  • 211450Z 25015G26KT 9999 BKN030 11/04 Q1021 TEMPO SCT024 BKN030
  • 211350Z 25018KT 9999 BKN031 OVC150 10/04 Q1021 NOSIG RMK BLU BLU
  • 211320Z 25020G32KT 9999 BKN032 OVC160 10/04 Q1022 NOSIG RMK BLU BLU

TAF TAF EGWU
Valido dal 21 a 15 ore il 22 a 09 ore UTC


211350Z 2115/2209 24018G32KT 9999 BKN030
TEMPO 2115/2117 SCT023 BKN030
BECMG 2117/2119 BKN020 OVC028
PROB30
TEMPO 2120/2202 -DZ SCT012 BKN018
BECMG 2202/2205 -DZ SCT010 BKN015
PROB30
TEMPO 2203/2207 7000 DZ SCT006 OVC009
BECMG 2206/2209 NSW FEW024 BKN047



MetMap, La meteo Aeronautica in un colpo d'occhio ! - Copyright ORBIFLY Dicembre 2007 - Disclaimer

ORBIFLY MET'MAP TEAM :

Programmazione e sviluppo : Alexandra Zaïnal
Concezione : Baudouin d'Aumeries
Aiuto per la programmazione : Marc-Olivier Méhu
Supporto tecnico e logistico : Manuel Goepfert
Aiuto per la traduzione : Arnaldo La Scala

Contatto : metmap@orbifly.com




FONTI E CREDITI :

   NOAA